createdAt,value
2022-10-31T00:02:10.128Z,68.50
2022-10-31T00:07:14.830Z,68.90
2022-10-31T00:12:18.259Z,69.00
2022-10-31T00:17:21.621Z,68.90
2022-10-31T00:22:26.947Z,68.70
2022-10-31T00:27:30.240Z,68.30
2022-10-31T00:32:33.645Z,68.10
2022-10-31T00:37:38.520Z,68.40
2022-10-31T00:42:42.646Z,68.50
2022-10-31T00:47:46.008Z,68.50
2022-10-31T00:52:50.715Z,68.30
2022-10-31T00:57:54.049Z,68.10
2022-10-31T01:02:58.102Z,68.10
2022-10-31T01:08:03.001Z,68.30
2022-10-31T01:13:06.333Z,68.00
2022-10-31T01:18:09.616Z,68.10
2022-10-31T01:23:14.235Z,68.10
2022-10-31T01:28:17.632Z,69.30
2022-10-31T01:33:21.284Z,68.30
2022-10-31T01:38:26.187Z,68.00
2022-10-31T01:43:44.909Z,67.80
2022-10-31T01:48:49.705Z,67.80
2022-10-31T01:53:56.659Z,68.10
2022-10-31T01:59:02.806Z,68.40
2022-10-31T02:04:07.318Z,68.20
2022-10-31T02:09:14.701Z,69.20
2022-10-31T02:14:18.112Z,70.80
2022-10-31T02:19:28.416Z,69.90
2022-10-31T02:24:48.215Z,69.80
2022-10-31T02:30:14.326Z,69.30
2022-10-31T02:35:30.274Z,68.90
2022-10-31T02:40:37.940Z,68.70
2022-10-31T02:45:46.110Z,68.50
2022-10-31T02:50:56.199Z,68.30
2022-10-31T02:56:03.440Z,68.20
2022-10-31T03:01:36.960Z,68.50
2022-10-31T03:06:47.769Z,68.70
2022-10-31T03:11:59.274Z,68.70
2022-10-31T03:17:08.070Z,68.70
2022-10-31T03:22:19.619Z,68.60
2022-10-31T03:27:26.555Z,68.30
2022-10-31T03:32:34.565Z,68.00
2022-10-31T03:37:41.197Z,68.30
2022-10-31T03:42:50.386Z,68.20
2022-10-31T03:47:55.639Z,68.10
2022-10-31T03:53:06.345Z,67.90
2022-10-31T03:58:14.338Z,67.90
2022-10-31T04:03:22.582Z,68.20
2022-10-31T04:08:31.777Z,68.40
2022-10-31T04:13:39.405Z,68.70
2022-10-31T04:18:43.264Z,68.80
2022-10-31T04:23:47.980Z,68.70
2022-10-31T04:28:51.256Z,68.60
2022-10-31T04:33:54.942Z,68.90
2022-10-31T04:38:59.540Z,69.10
2022-10-31T04:44:02.902Z,69.10
2022-10-31T04:49:06.216Z,69.00
2022-10-31T04:54:11.159Z,69.00
2022-10-31T04:59:14.471Z,69.00
2022-10-31T05:04:17.784Z,69.20
2022-10-31T05:09:22.773Z,69.40
2022-10-31T05:14:26.068Z,69.40
2022-10-31T05:19:29.379Z,69.30
2022-10-31T05:24:34.297Z,69.50
2022-10-31T05:29:37.624Z,69.40
2022-10-31T05:34:40.921Z,69.40
2022-10-31T05:39:45.797Z,69.20
2022-10-31T05:44:49.113Z,69.30
2022-10-31T05:49:52.694Z,69.40
2022-10-31T05:54:57.353Z,69.40
2022-10-31T06:00:00.961Z,69.40
2022-10-31T06:05:05.162Z,69.40
2022-10-31T06:10:11.278Z,69.40
2022-10-31T06:15:16.134Z,69.30
2022-10-31T06:20:22.588Z,68.90
2022-10-31T06:25:27.420Z,68.80
2022-10-31T06:30:31.138Z,68.60
2022-10-31T06:35:34.639Z,68.80
2022-10-31T06:40:39.306Z,69.00
2022-10-31T06:45:42.844Z,69.30
2022-10-31T06:50:46.671Z,69.40
2022-10-31T06:55:51.438Z,69.40
2022-10-31T07:00:54.809Z,69.50
2022-10-31T07:05:58.916Z,69.50
2022-10-31T07:11:04.656Z,69.60
2022-10-31T07:16:08.752Z,69.60
2022-10-31T07:21:12.082Z,69.70
2022-10-31T07:26:16.808Z,69.80
2022-10-31T07:31:20.432Z,71.10
2022-10-31T07:36:23.825Z,70.30
2022-10-31T07:41:28.562Z,70.70
2022-10-31T07:46:32.273Z,71.00
2022-10-31T07:51:35.988Z,70.80
2022-10-31T07:56:40.779Z,70.70
2022-10-31T08:01:44.510Z,70.70
2022-10-31T08:06:49.385Z,70.70
2022-10-31T08:11:55.588Z,70.70
2022-10-31T08:16:58.874Z,70.90
2022-10-31T08:22:02.268Z,70.90
2022-10-31T08:27:07.046Z,71.10
2022-10-31T08:32:10.391Z,71.00
2022-10-31T08:37:13.702Z,71.10
2022-10-31T08:42:18.472Z,70.50
2022-10-31T08:47:23.146Z,69.90
2022-10-31T08:52:51.134Z,69.40
2022-10-31T08:57:57.302Z,69.00
2022-10-31T09:03:02.123Z,68.80
2022-10-31T09:08:09.440Z,68.40
2022-10-31T09:13:18.662Z,68.40
2022-10-31T09:18:24.246Z,67.30
2022-10-31T09:23:27.874Z,66.90
2022-10-31T09:28:33.457Z,66.80
2022-10-31T09:33:36.825Z,66.40
2022-10-31T09:38:40.425Z,66.10
2022-10-31T09:43:55.144Z,65.10
2022-10-31T09:49:15.347Z,64.40
2022-10-31T09:54:23.869Z,64.20
2022-10-31T09:59:32.765Z,64.00
2022-10-31T10:04:41.693Z,64.20
2022-10-31T10:09:45.156Z,63.70
2022-10-31T10:15:02.749Z,63.50
2022-10-31T10:20:20.797Z,63.00
2022-10-31T10:25:25.749Z,62.60
2022-10-31T10:30:36.264Z,61.70
2022-10-31T10:35:45.107Z,61.50
2022-10-31T10:40:49.448Z,60.60
2022-10-31T10:46:41.009Z,60.00
2022-10-31T10:57:29.217Z,60.80
2022-10-31T11:02:35.157Z,59.20
2022-10-31T11:07:42.145Z,58.80
2022-10-31T11:12:48.121Z,58.60
2022-10-31T11:17:56.401Z,58.00
2022-10-31T11:23:06.165Z,57.60
2022-10-31T11:28:11.806Z,57.20
2022-10-31T11:33:21.921Z,56.50
2022-10-31T11:38:31.870Z,56.00
2022-10-31T11:43:35.494Z,55.30
2022-10-31T11:48:40.611Z,54.50
2022-10-31T11:53:56.810Z,54.20
2022-10-31T11:59:06.600Z,54.00
2022-10-31T12:04:13.491Z,53.80
2022-10-31T12:09:23.258Z,53.90
2022-10-31T12:14:35.823Z,52.80
2022-10-31T12:19:51.244Z,53.20
2022-10-31T12:25:15.955Z,52.70
2022-10-31T12:30:22.469Z,52.80
2022-10-31T12:40:58.364Z,52.50
2022-10-31T12:46:03.196Z,52.20
2022-10-31T12:51:16.919Z,51.50
2022-10-31T12:56:42.770Z,51.80
2022-10-31T13:01:51.902Z,51.80
2022-10-31T13:07:02.053Z,52.10
2022-10-31T13:12:11.044Z,51.40
2022-10-31T13:17:23.026Z,51.60
2022-10-31T13:22:32.754Z,51.50
2022-10-31T13:27:46.089Z,51.60
2022-10-31T13:32:55.376Z,50.70
2022-10-31T13:38:13.700Z,50.50
2022-10-31T13:43:25.868Z,50.30
2022-10-31T13:48:40.062Z,50.70
2022-10-31T13:54:00.023Z,50.30
2022-10-31T13:59:16.013Z,50.40
2022-10-31T14:04:25.266Z,50.50
2022-10-31T14:09:34.733Z,50.70
2022-10-31T14:14:48.611Z,51.20
2022-10-31T14:20:27.437Z,50.70
2022-10-31T14:25:34.677Z,51.10
2022-10-31T14:30:38.615Z,51.20
2022-10-31T14:35:53.877Z,51.50
2022-10-31T14:41:18.860Z,51.70
2022-10-31T14:46:33.655Z,51.80
2022-10-31T14:51:42.666Z,53.00
2022-10-31T14:56:52.086Z,52.20
2022-10-31T15:01:59.900Z,52.40
2022-10-31T15:07:07.160Z,52.40
2022-10-31T15:12:27.438Z,52.50
2022-10-31T15:17:30.779Z,52.70
2022-10-31T15:22:34.442Z,52.80
2022-10-31T15:27:42.786Z,53.00
2022-10-31T15:32:55.304Z,53.10
2022-10-31T15:38:03.075Z,53.10
2022-10-31T15:43:08.719Z,53.40
2022-10-31T15:48:19.159Z,53.90
2022-10-31T15:53:27.536Z,53.90
2022-10-31T15:58:34.685Z,54.20
2022-10-31T16:03:37.981Z,54.30
2022-10-31T16:08:50.317Z,54.30
2022-10-31T16:14:01.245Z,54.80
2022-10-31T16:19:07.374Z,55.20
2022-10-31T16:24:20.186Z,55.20
2022-10-31T16:29:38.350Z,55.50
2022-10-31T16:34:41.936Z,55.80
2022-10-31T16:39:45.265Z,56.40
2022-10-31T16:44:50.862Z,56.20
2022-10-31T16:49:54.274Z,56.30
2022-10-31T16:54:57.655Z,56.40
2022-10-31T17:00:02.358Z,56.60
2022-10-31T17:05:06.236Z,56.80
2022-10-31T17:10:11.513Z,57.10
2022-10-31T17:15:28.828Z,57.20
2022-10-31T17:20:33.009Z,57.20
2022-10-31T17:25:36.810Z,57.50
2022-10-31T17:30:42.059Z,57.70
2022-10-31T17:35:46.218Z,58.60
2022-10-31T17:40:49.622Z,59.30
2022-10-31T17:45:54.374Z,60.00
2022-10-31T17:51:01.511Z,60.20
2022-10-31T17:56:07.035Z,59.80
2022-10-31T18:01:13.921Z,59.40
2022-10-31T18:06:18.197Z,59.10
2022-10-31T18:11:22.870Z,59.10
2022-10-31T18:16:28.393Z,59.00
2022-10-31T18:21:32.341Z,59.50
2022-10-31T18:26:35.998Z,59.80
2022-10-31T18:31:40.740Z,60.00
2022-10-31T18:36:44.072Z,60.40
2022-10-31T18:41:47.455Z,60.30
2022-10-31T18:46:52.336Z,61.00
2022-10-31T18:51:55.866Z,61.10
2022-10-31T18:56:59.205Z,61.10
2022-10-31T19:02:03.997Z,61.10
2022-10-31T19:07:07.409Z,61.10
2022-10-31T19:12:10.733Z,61.00
2022-10-31T19:17:15.759Z,61.00
2022-10-31T19:22:19.068Z,61.20
2022-10-31T19:27:22.686Z,61.60
2022-10-31T19:32:27.484Z,61.90
2022-10-31T19:37:30.785Z,62.30
2022-10-31T19:42:34.166Z,62.20
2022-10-31T19:47:39.233Z,62.00
2022-10-31T19:52:43.146Z,62.00
2022-10-31T19:58:01.248Z,62.40
2022-10-31T20:03:07.263Z,62.70
2022-10-31T20:08:15.416Z,63.10
2022-10-31T20:13:18.689Z,63.60
2022-10-31T20:23:31.778Z,64.00
2022-10-31T20:28:39.961Z,63.70
2022-10-31T20:33:48.333Z,63.40
2022-10-31T20:38:52.460Z,63.50
2022-10-31T20:43:55.793Z,63.30
2022-10-31T20:49:00.443Z,63.50
2022-10-31T20:54:03.768Z,63.60
2022-10-31T20:59:08.128Z,63.90
2022-10-31T21:04:13.099Z,63.70
2022-10-31T21:09:17.702Z,63.60
2022-10-31T21:14:21.438Z,63.60
2022-10-31T21:19:26.083Z,63.80
2022-10-31T21:24:29.645Z,63.80
2022-10-31T21:29:33.352Z,63.90
2022-10-31T21:34:38.273Z,63.90
2022-10-31T21:39:42.494Z,64.10
2022-10-31T21:44:47.979Z,64.20
2022-10-31T21:49:52.665Z,64.30
2022-10-31T21:54:56.235Z,64.70
2022-10-31T21:59:59.576Z,65.10
2022-10-31T22:05:04.651Z,65.80
2022-10-31T22:10:09.033Z,66.10
2022-10-31T22:15:12.444Z,66.40
2022-10-31T22:20:17.564Z,66.70
2022-10-31T22:25:20.888Z,67.70
2022-10-31T22:30:24.414Z,66.60
2022-10-31T22:35:29.096Z,66.40
2022-10-31T22:40:34.279Z,66.50
2022-10-31T22:45:37.895Z,67.10
2022-10-31T22:50:42.608Z,67.20
2022-10-31T22:55:46.183Z,67.40
2022-10-31T23:00:49.709Z,67.70
2022-10-31T23:05:58.223Z,67.70
2022-10-31T23:11:01.527Z,67.40
2022-10-31T23:16:06.847Z,67.40
2022-10-31T23:21:31.480Z,67.10
2022-10-31T23:26:52.166Z,66.90
2022-10-31T23:31:55.598Z,66.80
2022-10-31T23:37:00.301Z,66.90
2022-10-31T23:42:03.954Z,67.20
2022-10-31T23:47:07.539Z,67.40
2022-10-31T23:52:13.003Z,67.50
2022-10-31T23:57:17.351Z,67.70
